createdAt,value
2023-08-12T00:00:43.817Z,14.80
2023-08-12T00:03:32.002Z,14.77
2023-08-12T00:06:02.942Z,14.74
2023-08-12T00:08:31.668Z,14.71
2023-08-12T00:10:59.990Z,14.68
2023-08-12T00:13:28.772Z,14.65
2023-08-12T00:15:57.251Z,14.63
2023-08-12T00:18:25.608Z,14.60
2023-08-12T00:20:54.953Z,14.56
2023-08-12T00:23:23.910Z,14.53
2023-08-12T00:25:52.302Z,14.50
2023-08-12T00:28:21.273Z,14.49
2023-08-12T00:30:50.670Z,14.48
2023-08-12T00:33:19.668Z,14.46
2023-08-12T00:35:48.331Z,14.45
2023-08-12T00:38:16.941Z,14.45
2023-08-12T00:40:45.289Z,14.45
2023-08-12T00:43:14.012Z,14.44
2023-08-12T00:45:42.919Z,14.43
2023-08-12T00:48:14.571Z,14.44
2023-08-12T00:50:43.973Z,14.44
2023-08-12T00:53:14.539Z,14.44
2023-08-12T00:55:43.493Z,14.44
2023-08-12T00:58:12.162Z,14.44
2023-08-12T01:00:43.378Z,14.41
2023-08-12T01:03:13.157Z,14.37
2023-08-12T01:05:42.366Z,14.36
2023-08-12T01:08:11.868Z,14.31
2023-08-12T01:10:46.101Z,14.26
2023-08-12T01:14:00.147Z,14.22
2023-08-12T01:16:34.497Z,14.16
2023-08-12T01:19:08.098Z,14.12
2023-08-12T01:21:42.244Z,14.07
2023-08-12T01:24:10.797Z,14.01
2023-08-12T01:26:39.143Z,13.96
2023-08-12T01:29:08.277Z,13.92
2023-08-12T01:31:46.928Z,13.89
2023-08-12T01:34:33.179Z,13.88
2023-08-12T01:37:08.720Z,13.84
2023-08-12T01:39:40.732Z,13.81
2023-08-12T01:42:10.902Z,13.78
2023-08-12T01:44:40.184Z,13.75
2023-08-12T01:47:10.896Z,13.74
2023-08-12T01:49:39.583Z,13.72
2023-08-12T01:52:08.175Z,13.69
2023-08-12T01:54:36.674Z,13.67
2023-08-12T01:57:06.862Z,13.66
2023-08-12T01:59:39.115Z,13.67
2023-08-12T02:02:07.609Z,13.67
2023-08-12T02:04:38.042Z,13.66
2023-08-12T02:07:06.455Z,13.65
2023-08-12T02:09:34.828Z,13.65
2023-08-12T02:12:03.251Z,13.64
2023-08-12T02:14:31.636Z,13.65
2023-08-12T02:17:00.025Z,13.68
2023-08-12T02:19:28.410Z,13.71
2023-08-12T02:21:56.830Z,13.73
2023-08-12T02:24:25.352Z,13.75
2023-08-12T02:26:53.918Z,13.74
2023-08-12T02:29:22.416Z,13.73
2023-08-12T02:31:50.912Z,13.69
2023-08-12T02:34:22.159Z,13.65
2023-08-12T02:36:50.770Z,13.63
2023-08-12T02:39:19.274Z,13.57
2023-08-12T02:41:47.951Z,13.51
2023-08-12T02:44:16.401Z,13.43
2023-08-12T02:46:44.918Z,13.34
2023-08-12T02:49:13.284Z,13.26
2023-08-12T02:51:41.703Z,13.18
2023-08-12T02:54:10.326Z,13.10
2023-08-12T02:56:38.669Z,13.04
2023-08-12T02:59:07.004Z,12.97
2023-08-12T03:01:35.439Z,12.91
2023-08-12T03:04:04.089Z,12.85
2023-08-12T03:06:32.528Z,12.79
2023-08-12T03:09:01.099Z,12.74
2023-08-12T03:11:29.556Z,12.70
2023-08-12T03:13:58.648Z,12.65
2023-08-12T03:16:27.705Z,12.61
2023-08-12T03:18:56.330Z,12.57
2023-08-12T03:21:25.887Z,12.53
2023-08-12T03:23:55.319Z,12.49
2023-08-12T03:26:23.774Z,12.46
2023-08-12T03:28:53.847Z,12.44
2023-08-12T03:31:23.084Z,12.43
2023-08-12T03:33:52.552Z,12.43
2023-08-12T03:36:21.613Z,12.43
2023-08-12T03:38:50.635Z,12.43
2023-08-12T03:41:21.046Z,12.43
2023-08-12T03:43:49.948Z,12.43
2023-08-12T03:46:18.814Z,12.45
2023-08-12T03:48:48.140Z,12.47
2023-08-12T03:51:16.622Z,12.48
2023-08-12T03:53:44.963Z,12.52
2023-08-12T03:56:16.223Z,12.57
2023-08-12T03:58:46.473Z,12.59
2023-08-12T04:01:15.578Z,12.63
2023-08-12T04:03:44.136Z,12.66
2023-08-12T04:06:12.572Z,12.71
2023-08-12T04:08:41.175Z,12.79
2023-08-12T04:11:09.719Z,12.86
2023-08-12T04:13:38.133Z,12.93
2023-08-12T04:16:06.523Z,13.00
2023-08-12T04:18:34.997Z,13.07
2023-08-12T04:21:03.576Z,13.12
2023-08-12T04:23:31.994Z,13.17
2023-08-12T04:26:00.443Z,13.23
2023-08-12T04:28:29.311Z,13.28
2023-08-12T04:30:57.897Z,13.33
2023-08-12T04:33:27.287Z,13.37
2023-08-12T04:35:55.788Z,13.43
2023-08-12T04:38:25.268Z,13.50
2023-08-12T04:40:56.058Z,13.58
2023-08-12T04:43:24.857Z,13.68
2023-08-12T04:45:54.843Z,13.77
2023-08-12T04:48:23.445Z,13.90
2023-08-12T04:50:52.073Z,13.99
2023-08-12T04:53:20.731Z,14.07
2023-08-12T04:55:53.066Z,14.14
2023-08-12T04:58:21.721Z,14.25
2023-08-12T05:00:53.483Z,14.36
2023-08-12T05:03:22.838Z,14.50
2023-08-12T05:05:53.205Z,14.65
2023-08-12T05:08:22.823Z,14.83
2023-08-12T05:10:52.079Z,15.01
2023-08-12T05:13:21.475Z,15.16
2023-08-12T05:15:50.219Z,15.31
2023-08-12T05:18:19.530Z,15.46
2023-08-12T05:20:48.154Z,15.58
2023-08-12T05:23:16.923Z,15.73
2023-08-12T05:25:45.492Z,15.90
2023-08-12T05:28:14.017Z,16.08
2023-08-12T05:30:42.348Z,16.28
2023-08-12T05:33:10.983Z,16.47
2023-08-12T05:35:39.374Z,16.67
2023-08-12T05:38:07.941Z,16.86
2023-08-12T05:40:36.292Z,17.02
2023-08-12T05:43:04.776Z,17.19
2023-08-12T05:45:33.233Z,17.40
2023-08-12T05:48:01.975Z,17.62
2023-08-12T05:50:30.349Z,17.83
2023-08-12T05:52:58.731Z,18.06
2023-08-12T05:55:27.275Z,18.27
2023-08-12T05:57:55.677Z,18.51
2023-08-12T06:00:24.120Z,18.72
2023-08-12T06:02:52.920Z,18.95
2023-08-12T06:05:21.491Z,19.16
2023-08-12T06:07:49.857Z,19.34
2023-08-12T06:10:18.269Z,19.54
2023-08-12T06:12:46.841Z,19.74
2023-08-12T06:15:15.278Z,19.96
2023-08-12T06:17:43.616Z,20.17
2023-08-12T06:20:12.655Z,20.37
2023-08-12T06:22:41.160Z,20.58
2023-08-12T06:25:09.908Z,20.80
2023-08-12T06:27:38.395Z,20.99
2023-08-12T06:30:07.811Z,21.15
2023-08-12T06:32:37.831Z,21.31
2023-08-12T06:35:06.865Z,21.49
2023-08-12T06:37:35.209Z,21.72
2023-08-12T06:40:05.022Z,21.96
2023-08-12T06:42:33.569Z,22.21
2023-08-12T06:45:02.034Z,22.53
2023-08-12T06:47:30.951Z,22.85
2023-08-12T06:49:59.499Z,23.14
2023-08-12T06:52:27.914Z,23.43
2023-08-12T06:54:56.315Z,23.70
2023-08-12T06:57:24.996Z,23.91
2023-08-12T06:59:53.552Z,24.06
2023-08-12T07:02:21.956Z,24.24
2023-08-12T07:04:50.521Z,24.42
2023-08-12T07:07:18.929Z,24.61
2023-08-12T07:09:47.404Z,24.74
2023-08-12T07:12:15.862Z,24.95
2023-08-12T07:14:44.202Z,25.20
2023-08-12T07:17:12.483Z,25.30
2023-08-12T07:19:40.902Z,25.34
2023-08-12T07:22:09.429Z,25.49
2023-08-12T07:24:38.350Z,25.68
2023-08-12T07:27:08.009Z,25.84
2023-08-12T07:29:37.092Z,25.88
2023-08-12T07:32:05.918Z,26.08
2023-08-12T07:34:34.370Z,26.34
2023-08-12T07:37:02.933Z,26.52
2023-08-12T07:39:31.320Z,26.45
2023-08-12T07:42:00.115Z,26.36
2023-08-12T07:44:28.430Z,26.54
2023-08-12T07:46:57.088Z,26.73
2023-08-12T07:49:25.814Z,26.83
2023-08-12T07:51:54.124Z,26.99
2023-08-12T07:54:22.450Z,27.11
2023-08-12T07:56:51.927Z,27.27
2023-08-12T07:59:21.124Z,27.47
2023-08-12T08:01:49.504Z,27.63
2023-08-12T08:04:18.093Z,27.83
2023-08-12T08:06:48.554Z,28.04
2023-08-12T08:09:18.242Z,28.29
2023-08-12T08:11:47.357Z,28.49
2023-08-12T08:14:15.679Z,28.55
2023-08-12T08:16:44.024Z,28.46
2023-08-12T08:19:13.302Z,28.57
2023-08-12T08:21:42.022Z,28.58
2023-08-12T08:24:12.725Z,28.60
2023-08-12T08:26:46.822Z,28.58
2023-08-12T08:29:16.415Z,28.77
2023-08-12T08:31:44.918Z,28.99
2023-08-12T08:34:13.481Z,29.14
2023-08-12T08:36:41.903Z,29.16
2023-08-12T08:39:10.489Z,29.15
2023-08-12T08:41:40.884Z,29.30
2023-08-12T08:44:10.396Z,29.48
2023-08-12T08:46:38.904Z,29.59
2023-08-12T08:49:09.376Z,29.60
2023-08-12T08:51:38.232Z,29.60
2023-08-12T08:54:07.137Z,29.76
2023-08-12T08:56:37.763Z,29.98
2023-08-12T08:59:13.550Z,30.12
2023-08-12T09:01:43.174Z,30.07
2023-08-12T09:04:13.452Z,30.04
2023-08-12T09:06:42.739Z,30.09
2023-08-12T09:09:13.949Z,30.21
2023-08-12T09:11:42.529Z,30.39
2023-08-12T09:14:17.251Z,30.32
2023-08-12T09:16:45.911Z,29.84
2023-08-12T09:19:14.389Z,29.25
2023-08-12T09:21:43.789Z,29.11
2023-08-12T09:24:14.223Z,29.17
2023-08-12T09:26:45.118Z,29.13
2023-08-12T09:29:13.895Z,29.23
2023-08-12T09:31:42.309Z,29.09
2023-08-12T09:34:10.691Z,29.06
2023-08-12T09:36:39.427Z,29.22
2023-08-12T09:39:12.667Z,29.46
2023-08-12T09:41:41.096Z,29.72
2023-08-12T09:44:09.974Z,29.53
2023-08-12T09:46:39.896Z,29.56
2023-08-12T09:49:11.337Z,29.87
2023-08-12T09:51:43.178Z,30.18
2023-08-12T09:54:14.397Z,30.47
2023-08-12T09:56:49.146Z,30.63
2023-08-12T09:59:23.709Z,30.45
2023-08-12T10:01:54.793Z,30.47
2023-08-12T10:04:28.154Z,30.78
2023-08-12T10:06:56.788Z,31.11
2023-08-12T10:09:25.751Z,31.29
2023-08-12T10:11:54.860Z,31.43
2023-08-12T10:14:25.274Z,31.52
2023-08-12T10:17:04.607Z,31.65
2023-08-12T10:19:36.068Z,31.84
2023-08-12T10:22:05.104Z,31.85
2023-08-12T10:24:35.392Z,31.89
2023-08-12T10:27:04.885Z,31.98
2023-08-12T10:29:33.269Z,32.15
2023-08-12T10:32:04.288Z,32.20
2023-08-12T10:34:33.647Z,31.73
2023-08-12T10:37:05.627Z,31.55
2023-08-12T10:39:34.850Z,31.68
2023-08-12T10:42:03.543Z,31.69
2023-08-12T10:44:55.566Z,31.83
2023-08-12T10:47:24.178Z,32.01
2023-08-12T10:49:54.470Z,32.26
2023-08-12T10:52:33.575Z,32.53
2023-08-12T10:55:18.348Z,32.64
2023-08-12T10:57:47.001Z,32.70
2023-08-12T11:00:26.373Z,32.83
2023-08-12T11:02:57.551Z,32.94
2023-08-12T11:05:38.186Z,33.13
2023-08-12T11:08:07.527Z,32.89
2023-08-12T11:10:36.742Z,32.51
2023-08-12T11:13:05.916Z,31.93
2023-08-12T11:15:35.681Z,31.82
2023-08-12T11:18:06.180Z,31.91
2023-08-12T11:20:36.162Z,32.10
2023-08-12T11:23:05.242Z,32.34
2023-08-12T11:25:35.273Z,32.57
2023-08-12T11:28:05.408Z,32.70
2023-08-12T11:30:34.140Z,32.47
2023-08-12T11:33:04.669Z,32.54
2023-08-12T11:35:33.223Z,32.69
2023-08-12T11:38:01.604Z,32.78
2023-08-12T11:40:30.594Z,32.97
2023-08-12T11:42:59.014Z,33.16
2023-08-12T11:45:29.905Z,33.30
2023-08-12T11:47:58.731Z,33.39
2023-08-12T11:50:28.863Z,33.39
2023-08-12T11:52:57.877Z,33.34
2023-08-12T11:55:27.104Z,33.17
2023-08-12T11:57:55.607Z,33.15
2023-08-12T12:00:26.395Z,33.04
2023-08-12T12:02:57.100Z,32.78
2023-08-12T12:05:35.349Z,32.51
2023-08-12T12:08:06.516Z,32.28
2023-08-12T12:10:35.871Z,32.11
2023-08-12T12:13:05.674Z,32.15
2023-08-12T12:15:42.342Z,32.34
2023-08-12T12:18:14.699Z,32.55
2023-08-12T12:21:04.239Z,32.76
2023-08-12T12:23:32.903Z,32.99
2023-08-12T12:26:05.337Z,33.15
2023-08-12T12:28:34.154Z,33.23
2023-08-12T12:31:02.540Z,33.24
2023-08-12T12:33:31.429Z,33.37
2023-08-12T12:36:02.491Z,33.47
2023-08-12T12:38:32.695Z,33.50
2023-08-12T12:41:01.143Z,33.49
2023-08-12T12:43:29.533Z,33.47
2023-08-12T12:45:57.838Z,33.57
2023-08-12T12:48:26.171Z,33.45
2023-08-12T12:50:54.654Z,33.24
2023-08-12T12:53:23.069Z,33.34
2023-08-12T12:55:51.481Z,33.51
2023-08-12T12:58:19.856Z,33.63
2023-08-12T13:00:48.150Z,33.61
2023-08-12T13:03:16.536Z,33.55
2023-08-12T13:05:45.110Z,33.57
2023-08-12T13:08:13.443Z,33.54
2023-08-12T13:10:41.813Z,33.56
2023-08-12T13:13:10.243Z,33.57
2023-08-12T13:15:38.677Z,33.54
2023-08-12T13:18:07.064Z,33.49
2023-08-12T13:20:35.954Z,33.41
2023-08-12T13:23:04.910Z,33.35
2023-08-12T13:25:35.090Z,33.21
2023-08-12T13:28:05.149Z,33.06
2023-08-12T13:30:33.502Z,32.70
2023-08-12T13:33:02.233Z,32.27
2023-08-12T13:35:30.832Z,31.86
2023-08-12T13:37:59.210Z,31.59
2023-08-12T13:40:27.777Z,31.36
2023-08-12T13:42:56.524Z,31.39
2023-08-12T13:45:25.103Z,31.48
2023-08-12T13:47:53.688Z,31.54
2023-08-12T13:50:22.472Z,31.34
2023-08-12T13:52:51.780Z,31.17
2023-08-12T13:55:20.242Z,31.21
2023-08-12T13:57:48.546Z,31.22
2023-08-12T14:00:16.979Z,31.32
2023-08-12T14:02:45.472Z,31.39
2023-08-12T14:05:14.201Z,31.46
2023-08-12T14:07:43.304Z,31.53
2023-08-12T14:10:11.677Z,31.56
2023-08-12T14:12:40.089Z,31.59
2023-08-12T14:15:08.680Z,31.58
2023-08-12T14:17:37.027Z,31.60
2023-08-12T14:20:09.089Z,31.49
2023-08-12T14:22:37.636Z,31.15
2023-08-12T14:25:06.813Z,30.67
2023-08-12T14:27:35.199Z,30.15
2023-08-12T14:30:04.180Z,29.87
2023-08-12T14:32:32.590Z,29.65
2023-08-12T14:35:01.005Z,29.57
2023-08-12T14:37:29.354Z,29.42
2023-08-12T14:39:57.711Z,29.39
2023-08-12T14:42:26.059Z,29.41
2023-08-12T14:44:54.450Z,29.44
2023-08-12T14:47:22.857Z,29.46
2023-08-12T14:49:53.405Z,29.49
2023-08-12T14:52:21.920Z,29.50
2023-08-12T14:54:50.598Z,29.38
2023-08-12T14:57:19.022Z,29.31
2023-08-12T14:59:51.929Z,29.21
2023-08-12T15:02:23.388Z,29.13
2023-08-12T15:04:52.238Z,29.07
2023-08-12T15:07:21.510Z,28.99
2023-08-12T15:09:49.941Z,28.89
2023-08-12T15:12:18.326Z,28.80
2023-08-12T15:14:46.624Z,28.69
2023-08-12T15:17:15.231Z,28.65
2023-08-12T15:19:43.781Z,28.55
2023-08-12T15:22:12.111Z,28.45
2023-08-12T15:24:40.445Z,28.29
2023-08-12T15:27:08.835Z,28.23
2023-08-12T15:29:37.187Z,28.18
2023-08-12T15:32:05.768Z,28.14
2023-08-12T15:34:34.078Z,28.09
2023-08-12T15:37:02.559Z,28.04
2023-08-12T15:39:30.895Z,27.96
2023-08-12T15:41:59.268Z,27.89
2023-08-12T15:44:27.590Z,27.84
2023-08-12T15:46:55.931Z,27.77
2023-08-12T15:49:25.727Z,27.69
2023-08-12T15:51:54.052Z,27.58
2023-08-12T15:54:22.385Z,27.48
2023-08-12T15:56:50.700Z,27.36
2023-08-12T15:59:20.321Z,27.22
2023-08-12T16:01:50.692Z,27.11
2023-08-12T16:04:19.244Z,27.01
2023-08-12T16:06:48.062Z,26.93
2023-08-12T16:09:19.430Z,26.84
2023-08-12T16:11:49.565Z,26.76
2023-08-12T16:14:17.951Z,26.67
2023-08-12T16:16:46.311Z,26.59
2023-08-12T16:19:14.680Z,26.50
2023-08-12T16:21:43.016Z,26.41
2023-08-12T16:24:11.345Z,26.32
2023-08-12T16:26:39.765Z,26.26
2023-08-12T16:29:09.419Z,26.17
2023-08-12T16:31:47.526Z,26.06
2023-08-12T16:34:16.069Z,25.94
2023-08-12T16:36:44.545Z,25.83
2023-08-12T16:39:12.975Z,25.71
2023-08-12T16:41:42.469Z,25.61
2023-08-12T16:44:10.909Z,25.49
2023-08-12T16:46:39.270Z,25.37
2023-08-12T16:49:07.658Z,25.23
2023-08-12T16:51:36.148Z,25.10
2023-08-12T16:54:04.593Z,24.96
2023-08-12T16:56:32.903Z,24.81
2023-08-12T16:59:01.675Z,24.66
2023-08-12T17:01:30.132Z,24.52
2023-08-12T17:03:58.649Z,24.39
2023-08-12T17:06:27.178Z,24.26
2023-08-12T17:08:55.646Z,24.13
2023-08-12T17:11:23.973Z,24.01
2023-08-12T17:13:52.546Z,23.87
2023-08-12T17:16:21.001Z,23.73
2023-08-12T17:18:49.399Z,23.61
2023-08-12T17:21:17.982Z,23.49
2023-08-12T17:23:46.357Z,23.31
2023-08-12T17:26:14.766Z,23.18
2023-08-12T17:28:43.133Z,23.01
2023-08-12T17:31:13.061Z,22.85
2023-08-12T17:33:41.681Z,22.70
2023-08-12T17:36:11.122Z,22.56
2023-08-12T17:38:39.524Z,22.42
2023-08-12T17:41:07.863Z,22.32
2023-08-12T17:43:36.130Z,22.20
2023-08-12T17:46:04.482Z,22.09
2023-08-12T17:48:33.121Z,22.00
2023-08-12T17:51:01.500Z,21.88
2023-08-12T17:53:29.885Z,21.75
2023-08-12T17:55:58.258Z,21.61
2023-08-12T17:58:26.654Z,21.48
2023-08-12T18:00:55.063Z,21.36
2023-08-12T18:03:23.537Z,21.26
2023-08-12T18:05:51.934Z,21.13
2023-08-12T18:08:20.340Z,21.03
2023-08-12T18:10:49.259Z,20.94
2023-08-12T18:13:17.952Z,20.87
2023-08-12T18:15:46.290Z,20.83
2023-08-12T18:18:14.679Z,20.76
2023-08-12T18:20:43.089Z,20.68
2023-08-12T18:23:11.524Z,20.62
2023-08-12T18:25:40.005Z,20.56
2023-08-12T18:28:08.358Z,20.47
2023-08-12T18:30:36.717Z,20.41
2023-08-12T18:33:07.146Z,20.35
2023-08-12T18:35:35.407Z,20.27
2023-08-12T18:38:05.548Z,20.20
2023-08-12T18:40:34.128Z,20.13
2023-08-12T18:43:02.717Z,20.06
2023-08-12T18:45:31.081Z,19.98
2023-08-12T18:47:59.541Z,19.92
2023-08-12T18:50:27.902Z,19.87
2023-08-12T18:52:56.241Z,19.81
2023-08-12T18:55:24.703Z,19.76
2023-08-12T18:57:53.448Z,19.70
2023-08-12T19:00:22.133Z,19.65
2023-08-12T19:02:51.326Z,19.61
2023-08-12T19:05:19.849Z,19.58
2023-08-12T19:07:48.290Z,19.53
2023-08-12T19:10:16.596Z,19.47
2023-08-12T19:12:44.917Z,19.43
2023-08-12T19:15:13.286Z,19.37
2023-08-12T19:17:41.729Z,19.32
2023-08-12T19:20:11.219Z,19.28
2023-08-12T19:22:39.632Z,19.22
2023-08-12T19:25:09.144Z,19.20
2023-08-12T19:27:37.486Z,19.18
2023-08-12T19:30:06.393Z,19.14
2023-08-12T19:32:56.045Z,19.12
2023-08-12T19:35:24.587Z,19.08
2023-08-12T19:37:56.884Z,19.05
2023-08-12T19:40:25.830Z,19.04
2023-08-12T19:42:54.172Z,19.02
2023-08-12T19:45:22.680Z,18.99
2023-08-12T19:47:51.040Z,18.97
2023-08-12T19:50:20.518Z,18.94
2023-08-12T19:52:48.925Z,18.93
2023-08-12T19:55:17.388Z,18.91
2023-08-12T19:57:45.864Z,18.89
2023-08-12T20:00:15.388Z,18.88
2023-08-12T20:02:44.227Z,18.87
2023-08-12T20:05:17.368Z,18.86
2023-08-12T20:07:48.148Z,18.84
2023-08-12T20:10:19.298Z,18.82
2023-08-12T20:12:48.241Z,18.80
2023-08-12T20:15:17.484Z,18.76
2023-08-12T20:17:45.919Z,18.71
2023-08-12T20:20:18.565Z,18.66
2023-08-12T20:23:03.402Z,18.59
2023-08-12T20:25:37.160Z,18.48
2023-08-12T20:28:06.807Z,18.36
2023-08-12T20:30:35.210Z,18.25
2023-08-12T20:33:04.366Z,18.12
2023-08-12T20:35:33.063Z,18.03
2023-08-12T20:38:01.376Z,17.92
2023-08-12T20:40:29.717Z,17.82
2023-08-12T20:42:58.103Z,17.71
2023-08-12T20:45:26.521Z,17.60
2023-08-12T20:47:55.156Z,17.53
2023-08-12T20:50:23.905Z,17.48
2023-08-12T20:52:52.996Z,17.40
2023-08-12T20:55:21.403Z,17.34
2023-08-12T20:57:49.791Z,17.29
2023-08-12T21:00:18.523Z,17.25
2023-08-12T21:02:47.034Z,17.22
2023-08-12T21:05:15.699Z,17.19
2023-08-12T21:07:44.168Z,17.15
2023-08-12T21:10:13.326Z,17.13
2023-08-12T21:12:41.851Z,17.10
2023-08-12T21:15:10.358Z,17.07
2023-08-12T21:17:38.768Z,17.05
2023-08-12T21:20:07.730Z,17.00
2023-08-12T21:22:36.145Z,16.99
2023-08-12T21:25:05.611Z,16.96
2023-08-12T21:27:34.064Z,16.93
2023-08-12T21:30:02.616Z,16.88
2023-08-12T21:32:32.850Z,16.80
2023-08-12T21:35:01.770Z,16.72
2023-08-12T21:37:30.577Z,16.62
2023-08-12T21:39:58.854Z,16.55
2023-08-12T21:42:27.143Z,16.47
2023-08-12T21:44:55.503Z,16.40
2023-08-12T21:47:24.048Z,16.33
2023-08-12T21:49:52.400Z,16.25
2023-08-12T21:52:20.734Z,16.18
2023-08-12T21:54:49.165Z,16.11
2023-08-12T21:57:17.526Z,16.03
2023-08-12T21:59:45.853Z,15.96
2023-08-12T22:02:23.522Z,15.91
2023-08-12T22:04:52.088Z,15.84
2023-08-12T22:07:20.659Z,15.78
2023-08-12T22:09:48.984Z,15.71
2023-08-12T22:12:17.386Z,15.63
2023-08-12T22:14:45.817Z,15.60
2023-08-12T22:17:14.192Z,15.58
2023-08-12T22:19:42.543Z,15.58
2023-08-12T22:22:19.301Z,15.56
2023-08-12T22:24:48.896Z,15.55
2023-08-12T22:27:17.537Z,15.52
2023-08-12T22:29:46.054Z,15.49
2023-08-12T22:32:14.751Z,15.47
2023-08-12T22:34:43.434Z,15.45
2023-08-12T22:37:11.732Z,15.43
2023-08-12T22:39:40.133Z,15.39
2023-08-12T22:42:08.562Z,15.35
2023-08-12T22:44:37.068Z,15.30
2023-08-12T22:47:05.944Z,15.25
2023-08-12T22:49:34.356Z,15.21
2023-08-12T22:52:02.718Z,15.17
2023-08-12T22:54:31.008Z,15.13
2023-08-12T22:56:59.332Z,15.09
2023-08-12T22:59:27.701Z,15.05
2023-08-12T23:01:56.127Z,15.02
2023-08-12T23:04:24.608Z,15.00
2023-08-12T23:06:52.960Z,14.95
2023-08-12T23:09:21.324Z,14.93
2023-08-12T23:11:49.723Z,14.88
2023-08-12T23:14:18.078Z,14.84
2023-08-12T23:16:46.425Z,14.81
2023-08-12T23:19:14.817Z,14.77
2023-08-12T23:21:43.207Z,14.74
2023-08-12T23:24:11.850Z,14.70
2023-08-12T23:26:40.324Z,14.67
2023-08-12T23:29:08.702Z,14.64
2023-08-12T23:31:37.078Z,14.60
2023-08-12T23:34:05.430Z,14.55
2023-08-12T23:36:34.646Z,14.52
2023-08-12T23:39:04.787Z,14.49
2023-08-12T23:41:33.270Z,14.46
2023-08-12T23:44:01.614Z,14.43
2023-08-12T23:46:29.988Z,14.40
2023-08-12T23:48:58.370Z,14.38
2023-08-12T23:51:26.734Z,14.35
2023-08-12T23:53:55.148Z,14.33
2023-08-12T23:56:23.614Z,14.31
2023-08-12T23:58:51.988Z,14.29
